Lowville, New York
Current Conditions -  °F | °C
As of 9:56 AM on Thursday 23 Oct 2014 (Local Time) from KART Reporting Station
Clear Clear  
Wind Chill: 10°   Ceiling: Unl
Heat Index: 10°   Visibility: 10mi
Dew Point:   Wind: 20mph
Humidity: 54%   Direction: 30°NNE
Pressure: 30.02"   Gusts: 28mph
Location:  43.79°N, 75.49°W
Report Text: KART 231356Z AUTO 03017G24KT 10SM CLR 10/01 A3002 RMK AO2 PK WND 03026/1319 SLP168 T01000011
Loading
Personal Weather Stations






























Interactive Weather Map New forecast layout! Learn more

10-Day Weather Forecast

Advertisements
Track Severe Weather on mobile